createdAt,value
2023-04-02T00:01:40.764Z,99370.00
2023-04-02T00:04:16.233Z,99376.97
2023-04-02T00:06:46.450Z,99366.09
2023-04-02T00:09:13.020Z,99369.31
2023-04-02T00:11:46.574Z,99372.72
2023-04-02T00:14:30.428Z,99374.81
2023-04-02T00:16:59.678Z,99371.72
2023-04-02T00:19:48.944Z,99377.47
2023-04-02T00:22:22.466Z,99373.19
2023-04-02T00:24:54.297Z,99383.31
2023-04-02T00:27:21.246Z,99381.47
2023-04-02T00:29:50.713Z,99375.44
2023-04-02T00:32:22.006Z,99376.28
2023-04-02T00:34:48.895Z,99386.63
2023-04-02T00:37:27.855Z,99381.06
2023-04-02T00:40:07.171Z,99374.53
2023-04-02T00:42:36.217Z,99378.28
2023-04-02T00:45:04.260Z,99376.97
2023-04-02T00:47:37.421Z,99382.47
2023-04-02T00:50:16.068Z,99377.22
2023-04-02T00:52:45.634Z,99379.03
2023-04-02T00:55:17.619Z,99378.47
2023-04-02T00:57:45.266Z,99381.53
2023-04-02T01:00:16.072Z,99379.34
2023-04-02T01:02:42.978Z,99386.22
2023-04-02T01:05:16.100Z,99390.03
2023-04-02T01:07:45.613Z,99388.88
2023-04-02T01:10:45.396Z,99396.75
2023-04-02T01:13:17.918Z,99396.03
2023-04-02T01:15:56.039Z,99393.84
2023-04-02T01:18:50.432Z,99398.06
2023-04-02T01:21:38.030Z,99401.56
2023-04-02T01:24:07.476Z,99404.19
2023-04-02T01:26:44.623Z,99412.50
2023-04-02T01:29:16.180Z,99406.31
2023-04-02T01:31:45.752Z,99409.00
2023-04-02T01:34:19.662Z,99411.06
2023-04-02T01:36:57.296Z,99414.31
2023-04-02T01:39:51.434Z,99404.19
2023-04-02T01:42:29.950Z,99401.34
2023-04-02T01:45:17.039Z,99401.63
2023-04-02T01:47:44.812Z,99403.50
2023-04-02T01:50:14.717Z,99399.22
2023-04-02T01:52:44.796Z,99406.41
2023-04-02T01:55:13.236Z,99389.72
2023-04-02T01:57:47.445Z,99400.38
2023-04-02T02:00:15.863Z,99397.28
2023-04-02T02:02:44.813Z,99394.81
2023-04-02T02:05:17.309Z,99399.25
2023-04-02T02:07:44.829Z,99396.03
2023-04-02T02:10:16.463Z,99393.56
2023-04-02T02:12:48.162Z,99400.56
2023-04-02T02:15:21.107Z,99395.88
2023-04-02T02:17:48.552Z,99401.88
2023-04-02T02:20:16.348Z,99398.69
2023-04-02T02:22:51.224Z,99404.22
2023-04-02T02:25:22.292Z,99409.19
2023-04-02T02:28:02.830Z,99418.25
2023-04-02T02:30:37.645Z,99419.44
2023-04-02T02:33:33.790Z,99415.50
2023-04-02T02:36:06.424Z,99411.28
2023-04-02T02:39:10.794Z,99423.59
2023-04-02T02:41:51.752Z,99423.16
2023-04-02T02:44:25.931Z,99425.06
2023-04-02T02:47:00.284Z,99414.50
2023-04-02T02:49:46.143Z,99421.75
2023-04-02T02:52:21.741Z,99431.09
2023-04-02T02:54:55.100Z,99426.25
2023-04-02T02:57:25.114Z,99429.72
2023-04-02T02:59:53.028Z,99440.53
2023-04-02T03:02:19.704Z,99427.03
2023-04-02T03:04:49.728Z,99432.88
2023-04-02T03:07:19.270Z,99437.13
2023-04-02T03:10:06.692Z,99437.50
2023-04-02T03:12:48.037Z,99444.72
2023-04-02T03:15:41.421Z,99443.31
2023-04-02T03:18:08.167Z,99453.06
2023-04-02T03:20:46.837Z,99448.06
2023-04-02T03:23:21.680Z,99450.19
2023-04-02T03:26:03.346Z,99458.19
2023-04-02T03:28:34.984Z,99460.19
2023-04-02T03:31:08.415Z,99457.66
2023-04-02T03:33:37.471Z,99459.13
2023-04-02T03:36:31.743Z,99465.22
2023-04-02T03:39:20.688Z,99471.59
2023-04-02T03:42:05.554Z,99476.25
2023-04-02T03:44:38.054Z,99482.44
2023-04-02T03:47:14.643Z,99477.25
2023-04-02T03:49:47.401Z,99471.63
2023-04-02T03:52:20.271Z,99474.53
2023-04-02T03:54:54.254Z,99477.59
2023-04-02T03:57:38.025Z,99465.38
2023-04-02T04:00:14.374Z,99474.25
2023-04-02T04:02:57.659Z,99469.56
2023-04-02T04:05:37.254Z,99474.34
2023-04-02T04:08:08.198Z,99476.34
2023-04-02T04:10:36.012Z,99476.50
2023-04-02T04:13:11.545Z,99476.78
2023-04-02T04:16:28.715Z,99470.88
2023-04-02T04:19:14.953Z,99472.25
2023-04-02T04:21:45.267Z,99477.41
2023-04-02T04:24:21.987Z,99475.84
2023-04-02T04:27:04.194Z,99482.88
2023-04-02T04:29:50.305Z,99488.03
2023-04-02T04:32:33.774Z,99482.72
2023-04-02T04:35:17.757Z,99477.84
2023-04-02T04:37:49.678Z,99484.72
2023-04-02T04:40:22.708Z,99487.91
2023-04-02T04:42:54.319Z,99491.97
2023-04-02T04:45:40.220Z,99490.69
2023-04-02T04:48:40.286Z,99495.16
2023-04-02T04:51:19.592Z,99500.59
2023-04-02T04:53:49.193Z,99498.53
2023-04-02T04:56:21.671Z,99505.38
2023-04-02T04:58:57.860Z,99504.06
2023-04-02T05:01:30.185Z,99503.69
2023-04-02T05:04:22.320Z,99507.75
2023-04-02T05:06:54.578Z,99493.44
2023-04-02T05:09:39.222Z,99504.44
2023-04-02T05:12:16.700Z,99507.81
2023-04-02T05:14:50.938Z,99507.50
2023-04-02T05:17:27.119Z,99503.50
2023-04-02T05:20:21.187Z,99509.56
2023-04-02T05:23:07.093Z,99516.03
2023-04-02T05:25:33.914Z,99520.22
2023-04-02T05:28:18.459Z,99515.06
2023-04-02T05:30:52.667Z,99515.31
2023-04-02T05:33:24.504Z,99531.03
2023-04-02T05:36:00.362Z,99538.81
2023-04-02T05:38:30.012Z,99528.91
2023-04-02T05:41:07.850Z,99531.16
2023-04-02T05:43:39.030Z,99535.50
2023-04-02T05:46:17.139Z,99524.78
2023-04-02T05:48:46.254Z,99535.00
2023-04-02T05:51:19.115Z,99539.81
2023-04-02T05:53:54.142Z,99530.38
2023-04-02T05:56:25.535Z,99540.44
2023-04-02T05:59:11.595Z,99539.69
2023-04-02T06:01:49.657Z,99540.75
2023-04-02T06:04:50.771Z,99547.72
2023-04-02T06:07:29.378Z,99555.72
2023-04-02T06:10:26.962Z,99555.78
2023-04-02T06:13:06.059Z,99557.69
2023-04-02T06:15:34.131Z,99557.97
2023-04-02T06:18:14.123Z,99557.97
2023-04-02T06:20:40.737Z,99563.22
2023-04-02T06:23:33.216Z,99576.94
2023-04-02T06:26:05.904Z,99580.41
2023-04-02T06:28:46.268Z,99573.22
2023-04-02T06:31:27.745Z,99577.91
2023-04-02T06:33:56.417Z,99579.63
2023-04-02T06:36:25.568Z,99582.31
2023-04-02T06:38:54.365Z,99590.69
2023-04-02T06:41:22.978Z,99593.28
2023-04-02T06:43:52.875Z,99590.72
2023-04-02T06:46:46.099Z,99597.63
2023-04-02T06:49:30.842Z,99604.25
2023-04-02T06:52:01.241Z,99601.16
2023-04-02T06:54:28.159Z,99593.56
2023-04-02T06:56:59.130Z,99602.50
2023-04-02T06:59:26.126Z,99609.06
2023-04-02T07:01:52.737Z,99613.06
2023-04-02T07:04:20.276Z,99615.53
2023-04-02T07:06:47.205Z,99613.88
2023-04-02T07:09:13.868Z,99620.38
2023-04-02T07:11:40.499Z,99627.00
2023-04-02T07:14:07.151Z,99623.41
2023-04-02T07:16:36.664Z,99624.22
2023-04-02T07:19:04.275Z,99627.59
2023-04-02T07:21:31.435Z,99635.03
2023-04-02T07:23:58.187Z,99638.16
2023-04-02T07:26:27.986Z,99628.50
2023-04-02T07:28:55.865Z,99639.72
2023-04-02T07:31:27.723Z,99642.66
2023-04-02T07:33:58.605Z,99647.94
2023-04-02T07:36:26.303Z,99655.16
2023-04-02T07:38:52.928Z,99649.22
2023-04-02T07:41:20.006Z,99651.84
2023-04-02T07:43:46.946Z,99654.94
2023-04-02T07:46:16.699Z,99661.22
2023-04-02T07:48:44.071Z,99653.41
2023-04-02T07:51:17.790Z,99663.84
2023-04-02T07:53:44.552Z,99670.47
2023-04-02T07:56:18.358Z,99665.78
2023-04-02T07:58:45.900Z,99672.78
2023-04-02T08:01:18.576Z,99679.75
2023-04-02T08:03:45.820Z,99684.31
2023-04-02T08:06:12.793Z,99684.47
2023-04-02T08:08:39.549Z,99689.09
2023-04-02T08:11:06.585Z,99698.31
2023-04-02T08:13:33.364Z,99695.16
2023-04-02T08:16:00.704Z,99703.38
2023-04-02T08:18:27.665Z,99706.59
2023-04-02T08:20:54.338Z,99698.03
2023-04-02T08:23:21.766Z,99696.44
2023-04-02T08:25:48.835Z,99694.84
2023-04-02T08:28:15.776Z,99707.38
2023-04-02T08:30:42.917Z,99711.38
2023-04-02T08:33:09.565Z,99712.19
2023-04-02T08:35:36.422Z,99705.19
2023-04-02T08:38:03.328Z,99710.38
2023-04-02T08:40:38.885Z,99707.03
2023-04-02T08:43:11.941Z,99713.72
2023-04-02T08:46:11.804Z,99721.50
2023-04-02T08:48:42.706Z,99713.16
2023-04-02T08:51:21.510Z,99726.41
2023-04-02T08:53:48.206Z,99724.16
2023-04-02T08:56:25.417Z,99716.91
2023-04-02T08:58:56.033Z,99733.63
2023-04-02T09:01:41.733Z,99725.09
2023-04-02T09:04:18.871Z,99723.31
2023-04-02T09:06:47.428Z,99727.81
2023-04-02T09:09:16.626Z,99738.16
2023-04-02T09:11:53.326Z,99732.25
2023-04-02T09:14:30.862Z,99741.59
2023-04-02T09:17:03.933Z,99748.25
2023-04-02T09:19:37.637Z,99744.25
2023-04-02T09:22:09.445Z,99749.03
2023-04-02T09:24:37.702Z,99745.31
2023-04-02T09:27:04.668Z,99745.22
2023-04-02T09:29:45.896Z,99752.84
2023-04-02T09:32:30.892Z,99748.34
2023-04-02T09:35:25.411Z,99754.53
2023-04-02T09:38:18.527Z,99764.06
2023-04-02T09:40:48.009Z,99756.13
2023-04-02T09:43:18.376Z,99770.69
2023-04-02T09:45:59.682Z,99762.47
2023-04-02T09:48:31.801Z,99773.03
2023-04-02T09:51:26.319Z,99766.25
2023-04-02T09:54:12.918Z,99773.34
2023-04-02T09:56:41.375Z,99767.97
2023-04-02T09:59:13.848Z,99767.94
2023-04-02T10:01:54.007Z,99781.78
2023-04-02T10:04:39.173Z,99779.41
2023-04-02T10:07:06.850Z,99784.63
2023-04-02T10:09:36.786Z,99785.84
2023-04-02T10:12:07.520Z,99786.81
2023-04-02T10:14:37.600Z,99795.34
2023-04-02T10:17:17.876Z,99791.41
2023-04-02T10:19:52.292Z,99790.63
2023-04-02T10:22:21.737Z,99796.56
2023-04-02T10:24:49.389Z,99798.56
2023-04-02T10:27:22.941Z,99800.91
2023-04-02T10:29:58.284Z,99810.34
2023-04-02T10:32:38.085Z,99797.75
2023-04-02T10:35:23.626Z,99796.78
2023-04-02T10:37:56.690Z,99809.56
2023-04-02T10:40:29.658Z,99799.94
2023-04-02T10:43:07.301Z,99802.97
2023-04-02T10:45:51.638Z,99798.88
2023-04-02T10:48:47.104Z,99798.22
2023-04-02T10:51:28.828Z,99804.31
2023-04-02T10:54:14.052Z,99798.00
2023-04-02T10:56:50.658Z,99799.50
2023-04-02T10:59:32.982Z,99806.97
2023-04-02T11:02:04.196Z,99803.78
2023-04-02T11:04:44.260Z,99798.16
2023-04-02T11:07:20.880Z,99808.19
2023-04-02T11:09:52.133Z,99804.13
2023-04-02T11:12:22.823Z,99803.06
2023-04-02T11:14:51.569Z,99793.09
2023-04-02T11:17:20.109Z,99812.78
2023-04-02T11:19:46.916Z,99811.31
2023-04-02T11:22:20.520Z,99809.44
2023-04-02T11:24:51.093Z,99805.69
2023-04-02T11:27:25.467Z,99812.06
2023-04-02T11:30:08.178Z,99809.75
2023-04-02T11:32:43.234Z,99816.03
2023-04-02T11:35:31.801Z,99813.94
2023-04-02T11:38:03.921Z,99813.28
2023-04-02T11:40:57.356Z,99817.19
2023-04-02T11:43:50.773Z,99814.66
2023-04-02T11:46:26.742Z,99817.44
2023-04-02T11:48:55.251Z,99811.78
2023-04-02T11:51:24.584Z,99818.84
2023-04-02T11:53:53.961Z,99837.50
2023-04-02T11:56:31.483Z,99819.00
2023-04-02T11:59:16.514Z,99824.78
2023-04-02T12:02:13.714Z,99831.94
2023-04-02T12:04:48.732Z,99833.22
2023-04-02T12:07:36.519Z,99830.31
2023-04-02T12:10:17.376Z,99828.56
2023-04-02T12:12:44.564Z,99832.75
2023-04-02T12:15:26.286Z,99835.91
2023-04-02T12:17:53.167Z,99833.31
2023-04-02T12:20:23.450Z,99829.41
2023-04-02T12:22:52.988Z,99825.69
2023-04-02T12:25:40.592Z,99831.19
2023-04-02T12:28:10.131Z,99832.72
2023-04-02T12:30:38.400Z,99827.16
2023-04-02T12:33:20.423Z,99824.47
2023-04-02T12:35:49.086Z,99830.00
2023-04-02T12:38:35.173Z,99823.09
2023-04-02T12:41:05.336Z,99826.69
2023-04-02T12:43:34.178Z,99816.47
2023-04-02T12:46:10.008Z,99822.16
2023-04-02T12:48:37.635Z,99808.47
2023-04-02T12:51:04.359Z,99818.38
2023-04-02T12:53:40.236Z,99811.38
2023-04-02T12:56:11.138Z,99809.94
2023-04-02T12:58:42.793Z,99816.44
2023-04-02T13:01:14.110Z,99812.84
2023-04-02T13:03:40.783Z,99815.53
2023-04-02T13:06:36.956Z,99815.63
2023-04-02T13:09:06.635Z,99817.31
2023-04-02T13:11:41.176Z,99810.34
2023-04-02T13:14:19.913Z,99810.91
2023-04-02T13:16:47.120Z,99824.72
2023-04-02T13:19:33.358Z,99817.91
2023-04-02T13:22:02.977Z,99819.19
2023-04-02T13:24:32.240Z,99824.25
2023-04-02T13:27:01.863Z,99819.19
2023-04-02T13:29:32.643Z,99823.09
2023-04-02T13:32:05.513Z,99815.34
2023-04-02T13:34:32.531Z,99826.69
2023-04-02T13:36:59.666Z,99826.00
2023-04-02T13:39:27.124Z,99820.34
2023-04-02T13:41:58.796Z,99822.66
2023-04-02T13:44:30.839Z,99816.25
2023-04-02T13:46:58.348Z,99822.75
2023-04-02T13:49:25.486Z,99819.25
2023-04-02T13:51:59.859Z,99813.13
2023-04-02T13:54:46.902Z,99821.75
2023-04-02T13:57:14.316Z,99820.91
2023-04-02T13:59:41.000Z,99828.66
2023-04-02T14:02:17.407Z,99832.44
2023-04-02T14:04:51.008Z,99834.03
2023-04-02T14:07:21.837Z,99836.19
2023-04-02T14:10:10.189Z,99842.03
2023-04-02T14:12:45.675Z,99837.63
2023-04-02T14:15:58.255Z,99830.44
2023-04-02T14:18:59.031Z,99839.47
2023-04-02T14:21:36.894Z,99841.88
2023-04-02T14:24:16.197Z,99832.88
2023-04-02T14:26:51.178Z,99836.50
2023-04-02T14:29:23.853Z,99837.16
2023-04-02T14:31:59.661Z,99839.22
2023-04-02T14:34:38.567Z,99835.34
2023-04-02T14:37:18.068Z,99845.88
2023-04-02T14:40:10.356Z,99857.34
2023-04-02T14:43:03.358Z,99854.03
2023-04-02T14:46:02.978Z,99844.22
2023-04-02T14:48:54.524Z,99850.91
2023-04-02T14:51:29.314Z,99848.94
2023-04-02T14:53:58.881Z,99841.97
2023-04-02T14:56:26.691Z,99848.75
2023-04-02T14:59:06.662Z,99850.53
2023-04-02T15:01:42.288Z,99857.41
2023-04-02T15:04:16.828Z,99861.81
2023-04-02T15:06:49.250Z,99856.84
2023-04-02T15:09:31.446Z,99859.06
2023-04-02T15:12:06.523Z,99860.16
2023-04-02T15:14:58.374Z,99853.50
2023-04-02T15:17:25.100Z,99860.28
2023-04-02T15:19:59.277Z,99854.94
2023-04-02T15:23:20.369Z,99849.78
2023-04-02T15:26:04.970Z,99852.31
2023-04-02T15:29:03.691Z,99849.53
2023-04-02T15:31:31.283Z,99861.91
2023-04-02T15:34:30.742Z,99861.22
2023-04-02T15:37:19.787Z,99855.13
2023-04-02T15:39:46.407Z,99868.72
2023-04-02T15:42:21.686Z,99861.38
2023-04-02T15:45:07.214Z,99868.00
2023-04-02T15:47:43.522Z,99870.38
2023-04-02T15:50:35.345Z,99859.25
2023-04-02T15:53:17.239Z,99866.84
2023-04-02T15:55:58.271Z,99872.03
2023-04-02T15:59:29.765Z,99872.56
2023-04-02T16:02:02.089Z,99877.47
2023-04-02T16:04:41.899Z,99871.75
2023-04-02T16:07:24.056Z,99877.50
2023-04-02T16:09:57.698Z,99888.66
2023-04-02T16:12:26.020Z,99880.56
2023-04-02T16:14:59.006Z,99886.09
2023-04-02T16:17:38.662Z,99885.41
2023-04-02T16:20:17.435Z,99887.81
2023-04-02T16:22:59.302Z,99890.41
2023-04-02T16:25:30.340Z,99902.38
2023-04-02T16:28:08.422Z,99904.50
2023-04-02T16:30:43.915Z,99901.81
2023-04-02T16:33:19.566Z,99909.66
2023-04-02T16:36:04.276Z,99910.88
2023-04-02T16:39:17.734Z,99910.34
2023-04-02T16:42:05.926Z,99922.78
2023-04-02T16:45:11.247Z,99922.75
2023-04-02T16:48:02.622Z,99929.44
2023-04-02T16:50:52.261Z,99926.66
2023-04-02T16:54:00.437Z,99929.69
2023-04-02T16:56:46.036Z,99933.16
2023-04-02T16:59:29.567Z,99929.72
2023-04-02T17:02:15.854Z,99935.25
2023-04-02T17:05:15.161Z,99945.00
2023-04-02T17:08:01.821Z,99959.16
2023-04-02T17:10:32.723Z,99949.25
2023-04-02T17:13:26.177Z,99954.91
2023-04-02T17:16:19.938Z,99960.47
2023-04-02T17:18:49.589Z,99953.31
2023-04-02T17:21:24.518Z,99962.03
2023-04-02T17:23:56.615Z,99961.16
2023-04-02T17:26:27.610Z,99968.72
2023-04-02T17:28:57.506Z,99971.50
2023-04-02T17:31:27.126Z,99975.16
2023-04-02T17:33:53.722Z,99981.16
2023-04-02T17:36:41.911Z,99978.88
2023-04-02T17:39:18.164Z,99978.94
2023-04-02T17:42:10.442Z,99980.66
2023-04-02T17:44:36.903Z,99988.66
2023-04-02T17:47:29.843Z,99987.59
2023-04-02T17:50:15.317Z,99994.28
2023-04-02T17:52:53.465Z,99989.88
2023-04-02T17:55:44.080Z,100002.84
2023-04-02T17:58:40.165Z,100006.72
2023-04-02T18:01:28.871Z,100009.78
2023-04-02T18:04:32.852Z,100006.72
2023-04-02T18:07:36.992Z,100011.94
2023-04-02T18:10:27.273Z,100016.03
2023-04-02T18:13:01.922Z,100023.22
2023-04-02T18:15:49.870Z,100022.28
2023-04-02T18:18:41.104Z,100020.66
2023-04-02T18:21:31.409Z,100030.81
2023-04-02T18:24:19.451Z,100031.66
2023-04-02T18:26:52.542Z,100028.53
2023-04-02T18:29:25.097Z,100026.84
2023-04-02T18:32:03.755Z,100032.44
2023-04-02T18:34:39.389Z,100032.81
2023-04-02T18:37:18.695Z,100031.34
2023-04-02T18:40:04.022Z,100040.03
2023-04-02T18:43:02.253Z,100045.16
2023-04-02T18:45:43.188Z,100055.00
2023-04-02T18:48:59.943Z,100058.69
2023-04-02T18:51:29.289Z,100063.19
2023-04-02T18:54:14.620Z,100061.66
2023-04-02T18:56:41.941Z,100065.53
2023-04-02T18:59:46.487Z,100064.03
2023-04-02T19:02:32.949Z,100070.06
2023-04-02T19:05:05.701Z,100070.81
2023-04-02T19:07:38.933Z,100075.44
2023-04-02T19:10:17.903Z,100069.69
2023-04-02T19:12:44.416Z,100078.66
2023-04-02T19:15:20.294Z,100076.22
2023-04-02T19:18:13.521Z,100076.34
2023-04-02T19:21:04.503Z,100096.03
2023-04-02T19:23:56.923Z,100091.66
2023-04-02T19:26:32.920Z,100094.22
2023-04-02T19:29:22.983Z,100108.78
2023-04-02T19:32:22.727Z,100103.28
2023-04-02T19:34:56.582Z,100107.94
2023-04-02T19:37:41.447Z,100110.53
2023-04-02T19:40:25.833Z,100119.22
2023-04-02T19:42:53.314Z,100116.06
2023-04-02T19:45:35.216Z,100124.94
2023-04-02T19:48:10.728Z,100114.63
2023-04-02T19:50:37.470Z,100113.47
2023-04-02T19:53:04.072Z,100123.31
2023-04-02T19:55:30.793Z,100131.94
2023-04-02T19:58:08.536Z,100132.47
2023-04-02T20:00:43.975Z,100132.16
2023-04-02T20:03:10.669Z,100135.56
2023-04-02T20:05:37.486Z,100132.97
2023-04-02T20:08:04.871Z,100144.97
2023-04-02T20:10:31.368Z,100142.44
2023-04-02T20:12:57.862Z,100144.31
2023-04-02T20:15:24.618Z,100150.91
2023-04-02T20:17:51.337Z,100149.06
2023-04-02T20:20:17.887Z,100154.84
2023-04-02T20:22:44.525Z,100146.13
2023-04-02T20:25:11.040Z,100143.75
2023-04-02T20:27:37.544Z,100141.00
2023-04-02T20:30:04.947Z,100144.34
2023-04-02T20:32:32.286Z,100141.78
2023-04-02T20:34:58.848Z,100146.78
2023-04-02T20:37:25.533Z,100145.47
2023-04-02T20:39:52.690Z,100147.47
2023-04-02T20:42:19.473Z,100149.53
2023-04-02T20:44:46.374Z,100148.59
2023-04-02T20:47:13.271Z,100155.03
2023-04-02T20:49:39.818Z,100155.22
2023-04-02T20:52:06.478Z,100153.28
2023-04-02T20:54:32.979Z,100157.47
2023-04-02T20:56:59.602Z,100160.47
2023-04-02T20:59:26.275Z,100157.69
2023-04-02T21:01:52.861Z,100163.63
2023-04-02T21:04:19.576Z,100163.69
2023-04-02T21:06:46.237Z,100163.38
2023-04-02T21:09:17.928Z,100167.66
2023-04-02T21:11:44.436Z,100160.75
2023-04-02T21:14:11.605Z,100166.34
2023-04-02T21:16:40.291Z,100166.84
2023-04-02T21:19:09.012Z,100164.13
2023-04-02T21:21:37.822Z,100158.91
2023-04-02T21:24:06.576Z,100159.97
2023-04-02T21:26:35.999Z,100162.50
2023-04-02T21:29:03.469Z,100156.16
2023-04-02T21:31:34.005Z,100160.81
2023-04-02T21:34:00.751Z,100169.06
2023-04-02T21:36:36.260Z,100159.59
2023-04-02T21:39:17.845Z,100157.25
2023-04-02T21:41:47.125Z,100153.53
2023-04-02T21:44:15.333Z,100172.00
2023-04-02T21:46:43.296Z,100159.22
2023-04-02T21:49:12.361Z,100171.13
2023-04-02T21:51:40.894Z,100167.53
2023-04-02T21:54:08.071Z,100168.94
2023-04-02T21:56:40.213Z,100174.72
2023-04-02T21:59:08.317Z,100166.66
2023-04-02T22:01:38.240Z,100169.28
2023-04-02T22:04:06.389Z,100175.47
2023-04-02T22:06:37.884Z,100176.25
2023-04-02T22:09:08.169Z,100165.25
2023-04-02T22:11:37.926Z,100174.94
2023-04-02T22:14:05.840Z,100169.94
2023-04-02T22:16:34.252Z,100156.53
2023-04-02T22:19:03.049Z,100176.47
2023-04-02T22:21:31.459Z,100153.59
2023-04-02T22:24:01.676Z,100154.97
2023-04-02T22:26:29.131Z,100159.75
2023-04-02T22:28:55.922Z,100158.31
2023-04-02T22:31:25.171Z,100152.19
2023-04-02T22:33:53.107Z,100152.63
2023-04-02T22:36:20.634Z,100157.91
2023-04-02T22:38:47.476Z,100154.56
2023-04-02T22:41:17.244Z,100160.09
2023-04-02T22:43:45.462Z,100157.41
2023-04-02T22:46:14.627Z,100159.66
2023-04-02T22:48:41.603Z,100158.66
2023-04-02T22:51:09.569Z,100148.72
2023-04-02T22:53:36.803Z,100155.63
2023-04-02T22:56:26.747Z,100156.13
2023-04-02T22:58:53.513Z,100156.53
2023-04-02T23:01:32.426Z,100156.56
2023-04-02T23:03:59.287Z,100155.28
2023-04-02T23:06:26.756Z,100152.84
2023-04-02T23:08:53.515Z,100155.63
2023-04-02T23:11:25.225Z,100150.09
2023-04-02T23:13:53.976Z,100147.31
2023-04-02T23:16:21.407Z,100146.84
2023-04-02T23:18:49.134Z,100145.63
2023-04-02T23:21:16.989Z,100144.59
2023-04-02T23:23:43.970Z,100135.97
2023-04-02T23:26:16.687Z,100139.78
2023-04-02T23:28:43.742Z,100143.00
2023-04-02T23:31:16.804Z,100138.22
2023-04-02T23:33:44.002Z,100142.06
2023-04-02T23:36:13.915Z,100135.03
2023-04-02T23:38:40.925Z,100143.16
2023-04-02T23:41:07.660Z,100137.78
2023-04-02T23:43:34.170Z,100135.75
2023-04-02T23:46:01.130Z,100128.19
2023-04-02T23:48:27.854Z,100127.75
2023-04-02T23:50:54.409Z,100131.47
2023-04-02T23:53:21.252Z,100123.72
2023-04-02T23:55:48.174Z,100121.78
2023-04-02T23:58:14.717Z,100121.19
